createdAt,value
2022-12-09T00:01:38.053Z,92.00
2022-12-09T00:05:41.247Z,91.90
2022-12-09T00:09:43.103Z,92.00
2022-12-09T00:13:51.890Z,92.00
2022-12-09T00:17:53.575Z,92.50
2022-12-09T00:21:55.297Z,92.60
2022-12-09T00:25:57.436Z,92.60
2022-12-09T00:29:59.107Z,92.90
2022-12-09T00:34:03.892Z,92.50
2022-12-09T00:38:05.580Z,92.40
2022-12-09T00:42:07.461Z,92.30
2022-12-09T00:46:10.180Z,92.00
2022-12-09T00:50:12.298Z,92.10
2022-12-09T00:54:14.374Z,91.90
2022-12-09T00:58:16.108Z,92.10
2022-12-09T01:02:17.891Z,92.40
2022-12-09T01:06:23.777Z,92.10
2022-12-09T01:10:25.489Z,92.20
2022-12-09T01:14:27.405Z,92.00
2022-12-09T01:18:29.241Z,92.00
2022-12-09T01:22:31.021Z,91.90
2022-12-09T01:26:32.804Z,91.90
2022-12-09T01:30:34.495Z,91.60
2022-12-09T01:34:36.460Z,91.90
2022-12-09T01:38:38.294Z,91.80
2022-12-09T01:42:39.972Z,91.80
2022-12-09T01:46:42.191Z,91.60
2022-12-09T01:50:53.973Z,91.90
2022-12-09T01:54:55.636Z,92.10
2022-12-09T01:59:02.035Z,91.90
2022-12-09T02:03:06.862Z,92.00
2022-12-09T02:07:10.676Z,92.30
2022-12-09T02:11:27.483Z,92.10
2022-12-09T02:15:46.955Z,92.30
2022-12-09T02:20:13.406Z,92.30
2022-12-09T02:24:53.060Z,92.30
2022-12-09T02:29:20.523Z,92.30
2022-12-09T02:33:50.139Z,92.40
2022-12-09T02:37:51.745Z,92.40
2022-12-09T02:41:56.584Z,92.40
2022-12-09T02:46:00.443Z,92.20
2022-12-09T02:50:07.835Z,92.30
2022-12-09T02:54:14.686Z,92.40
2022-12-09T02:58:16.699Z,92.30
2022-12-09T03:02:35.419Z,92.40
2022-12-09T03:06:46.232Z,92.50
2022-12-09T03:10:51.230Z,92.60
2022-12-09T03:14:55.081Z,92.60
2022-12-09T03:19:30.990Z,92.60
2022-12-09T03:23:35.788Z,92.40
2022-12-09T03:27:40.600Z,92.40
2022-12-09T03:31:43.127Z,92.30
2022-12-09T03:35:56.534Z,92.40
2022-12-09T03:40:00.034Z,92.40
2022-12-09T03:44:11.395Z,92.30
2022-12-09T03:48:13.898Z,92.30
2022-12-09T03:52:18.365Z,92.20
2022-12-09T03:56:24.492Z,92.10
2022-12-09T04:00:26.545Z,92.20
2022-12-09T04:04:28.682Z,92.30
2022-12-09T04:08:31.044Z,92.10
2022-12-09T04:12:32.817Z,91.90
2022-12-09T04:16:34.666Z,92.20
2022-12-09T04:20:36.919Z,92.10
2022-12-09T04:24:38.916Z,92.10
2022-12-09T04:28:40.680Z,92.00
2022-12-09T04:32:42.464Z,92.70
2022-12-09T04:36:44.391Z,92.40
2022-12-09T04:40:46.270Z,92.50
2022-12-09T04:44:48.135Z,92.50
2022-12-09T04:48:49.983Z,92.70
2022-12-09T04:52:51.640Z,92.70
2022-12-09T04:56:53.401Z,92.50
2022-12-09T05:00:55.373Z,92.40
2022-12-09T05:04:57.512Z,92.50
2022-12-09T05:08:59.651Z,92.40
2022-12-09T05:13:01.531Z,93.00
2022-12-09T05:17:04.482Z,93.10
2022-12-09T05:21:07.683Z,92.80
2022-12-09T05:25:10.290Z,92.80
2022-12-09T05:29:15.195Z,92.90
2022-12-09T05:33:19.794Z,92.80
2022-12-09T05:37:21.728Z,92.80
2022-12-09T05:41:24.389Z,92.70
2022-12-09T05:45:26.345Z,92.90
2022-12-09T05:49:29.448Z,93.50
2022-12-09T05:53:31.533Z,93.60
2022-12-09T05:57:36.894Z,93.40
2022-12-09T06:01:39.233Z,93.00
2022-12-09T06:05:42.290Z,92.80
2022-12-09T06:09:44.504Z,92.90
2022-12-09T06:13:47.832Z,93.00
2022-12-09T06:17:50.437Z,93.30
2022-12-09T06:21:52.241Z,93.20
2022-12-09T06:25:54.283Z,93.00
2022-12-09T06:29:56.520Z,92.70
2022-12-09T06:33:59.590Z,92.60
2022-12-09T06:38:01.771Z,92.40
2022-12-09T06:42:04.405Z,92.40
2022-12-09T06:46:18.661Z,92.50
2022-12-09T06:50:20.709Z,92.60
2022-12-09T06:54:23.075Z,92.60
2022-12-09T06:58:24.973Z,93.00
2022-12-09T07:02:30.238Z,93.10
2022-12-09T07:06:41.028Z,93.00
2022-12-09T07:10:48.147Z,93.10
2022-12-09T07:14:53.569Z,93.00
2022-12-09T07:18:55.676Z,92.80
2022-12-09T07:22:57.617Z,92.70
2022-12-09T07:27:06.200Z,92.60
2022-12-09T07:31:25.595Z,92.70
2022-12-09T07:35:27.600Z,92.90
2022-12-09T07:39:29.377Z,93.00
2022-12-09T07:43:34.177Z,93.30
2022-12-09T07:47:36.163Z,93.20
2022-12-09T07:51:38.279Z,93.30
2022-12-09T07:55:40.023Z,93.20
2022-12-09T07:59:42.181Z,93.30
2022-12-09T08:03:44.498Z,93.40
2022-12-09T08:07:46.554Z,93.40
2022-12-09T08:11:48.628Z,93.50
2022-12-09T08:15:50.587Z,93.60
2022-12-09T08:19:52.488Z,93.70
2022-12-09T08:23:56.969Z,93.90
2022-12-09T08:27:59.463Z,94.20
2022-12-09T08:32:03.025Z,94.30
2022-12-09T08:36:10.940Z,94.20
2022-12-09T08:40:14.335Z,94.20
2022-12-09T08:44:19.435Z,94.40
2022-12-09T08:48:21.366Z,94.60
2022-12-09T08:52:23.189Z,94.70
2022-12-09T08:56:25.500Z,94.90
2022-12-09T09:00:27.171Z,95.20
2022-12-09T09:04:31.892Z,95.20
2022-12-09T09:08:34.340Z,95.40
2022-12-09T09:12:42.030Z,95.30
2022-12-09T09:16:45.791Z,95.40
2022-12-09T09:20:49.017Z,95.50
2022-12-09T09:24:52.383Z,95.50
2022-12-09T09:28:55.705Z,95.40
2022-12-09T09:32:57.609Z,95.40
2022-12-09T09:36:59.470Z,95.70
2022-12-09T09:41:06.897Z,95.80
2022-12-09T09:45:15.886Z,95.70
2022-12-09T09:49:27.187Z,95.50
2022-12-09T09:53:34.860Z,95.40
2022-12-09T09:57:44.468Z,95.60
2022-12-09T10:02:08.899Z,95.50
2022-12-09T10:06:42.632Z,95.50
2022-12-09T10:11:02.226Z,95.40
2022-12-09T10:15:15.931Z,95.40
2022-12-09T10:19:32.993Z,95.50
2022-12-09T10:23:35.379Z,95.80
2022-12-09T10:27:52.612Z,95.80
2022-12-09T10:31:54.629Z,95.70
2022-12-09T10:35:56.942Z,95.40
2022-12-09T10:40:08.229Z,95.80
2022-12-09T10:44:26.162Z,95.90
2022-12-09T10:48:32.701Z,95.70
2022-12-09T10:52:45.377Z,96.50
2022-12-09T10:57:15.127Z,97.40
2022-12-09T11:01:18.561Z,96.90
2022-12-09T11:05:28.567Z,96.30
2022-12-09T11:09:42.857Z,96.10
2022-12-09T11:13:44.956Z,96.00
2022-12-09T11:18:03.303Z,95.90
2022-12-09T11:22:33.495Z,95.90
2022-12-09T11:26:39.195Z,95.80
2022-12-09T11:35:30.301Z,96.10
2022-12-09T11:39:35.562Z,96.10
2022-12-09T11:43:42.612Z,96.10
2022-12-09T11:52:17.470Z,96.00
2022-12-09T11:56:25.777Z,96.10
2022-12-09T12:00:34.686Z,96.30
2022-12-09T12:04:57.707Z,96.70
2022-12-09T12:09:02.943Z,97.00
2022-12-09T12:13:16.963Z,96.60
2022-12-09T12:17:25.749Z,96.70
2022-12-09T12:21:54.895Z,96.30
2022-12-09T12:26:09.441Z,97.20
2022-12-09T12:30:15.707Z,97.80
2022-12-09T12:34:39.067Z,97.50
2022-12-09T12:39:06.394Z,97.00
2022-12-09T12:43:57.551Z,96.60
2022-12-09T12:48:07.073Z,96.50
2022-12-09T12:52:53.804Z,96.40
2022-12-09T12:56:44.963Z,96.60
2022-12-09T13:01:18.050Z,96.80
2022-12-09T13:05:29.393Z,96.90
2022-12-09T13:09:34.744Z,96.60
2022-12-09T13:13:49.881Z,96.90
2022-12-09T13:17:52.044Z,97.00
2022-12-09T13:21:53.972Z,96.80
2022-12-09T13:26:26.488Z,96.80
2022-12-09T13:30:37.852Z,96.80
2022-12-09T13:34:52.487Z,96.60
2022-12-09T13:38:54.133Z,96.60
2022-12-09T13:43:03.936Z,96.60
2022-12-09T13:47:25.851Z,96.60
2022-12-09T13:51:45.044Z,96.50
2022-12-09T13:55:55.737Z,96.50
2022-12-09T14:00:03.606Z,96.60
2022-12-09T14:04:21.316Z,97.10
2022-12-09T14:08:31.016Z,97.20
2022-12-09T14:12:32.672Z,97.10
2022-12-09T14:16:34.857Z,96.80
2022-12-09T14:20:39.244Z,96.60
2022-12-09T14:24:41.290Z,96.70
2022-12-09T14:28:54.045Z,96.90
2022-12-09T14:32:57.361Z,97.40
2022-12-09T14:37:17.163Z,97.10
2022-12-09T14:41:26.392Z,97.00
2022-12-09T14:45:50.220Z,97.30
2022-12-09T14:49:54.345Z,97.90
2022-12-09T14:54:06.364Z,97.80
2022-12-09T14:58:18.468Z,97.30
2022-12-09T15:02:25.948Z,97.00
2022-12-09T15:06:28.967Z,96.90
2022-12-09T15:10:36.308Z,96.70
2022-12-09T15:14:40.191Z,96.90
2022-12-09T15:18:44.353Z,96.70
2022-12-09T15:22:52.667Z,96.80
2022-12-09T15:26:59.975Z,96.70
2022-12-09T15:31:05.644Z,96.50
2022-12-09T15:35:33.810Z,96.60
2022-12-09T15:39:52.074Z,96.60
2022-12-09T15:43:57.566Z,96.60
2022-12-09T15:48:18.994Z,96.40
2022-12-09T15:52:26.141Z,96.70
2022-12-09T15:57:02.051Z,96.60
2022-12-09T16:01:04.131Z,96.60
2022-12-09T16:05:08.533Z,96.50
2022-12-09T16:09:16.015Z,96.50
2022-12-09T16:13:19.746Z,96.60
2022-12-09T16:17:27.537Z,96.60
2022-12-09T16:21:33.497Z,96.70
2022-12-09T16:25:40.588Z,96.70
2022-12-09T16:29:49.240Z,96.60
2022-12-09T16:33:51.291Z,96.60
2022-12-09T16:37:58.847Z,96.60
2022-12-09T16:42:02.924Z,96.70
2022-12-09T16:46:13.775Z,96.90
2022-12-09T16:50:15.491Z,97.10
2022-12-09T16:54:20.666Z,97.30
2022-12-09T16:58:23.033Z,97.20
2022-12-09T17:02:29.173Z,97.10
2022-12-09T17:06:31.218Z,97.00
2022-12-09T17:10:32.940Z,96.90
2022-12-09T17:14:34.703Z,96.80
2022-12-09T17:18:36.608Z,96.60
2022-12-09T17:22:38.356Z,96.60
2022-12-09T17:26:40.069Z,96.60
2022-12-09T17:30:41.748Z,96.70
2022-12-09T17:34:43.534Z,96.80
2022-12-09T17:38:45.620Z,97.00
2022-12-09T17:42:47.298Z,96.90
2022-12-09T17:46:50.488Z,96.80
2022-12-09T17:50:52.115Z,96.70
2022-12-09T17:54:53.837Z,96.60
2022-12-09T17:59:00.891Z,96.40
2022-12-09T18:03:02.556Z,96.20
2022-12-09T18:07:04.237Z,96.20
2022-12-09T18:11:08.143Z,96.30
2022-12-09T18:15:10.283Z,96.10
2022-12-09T18:19:16.246Z,96.00
2022-12-09T18:23:17.959Z,96.00
2022-12-09T18:27:19.604Z,96.10
2022-12-09T18:31:21.767Z,96.10
2022-12-09T18:35:23.511Z,96.00
2022-12-09T18:39:25.148Z,95.90
2022-12-09T18:43:36.283Z,95.80
2022-12-09T18:47:37.911Z,95.80
2022-12-09T18:51:41.166Z,95.90
2022-12-09T18:55:43.275Z,95.90
2022-12-09T18:59:45.762Z,95.90
2022-12-09T19:03:48.198Z,95.90
2022-12-09T19:07:50.009Z,95.70
2022-12-09T19:11:52.825Z,95.70
2022-12-09T19:15:54.594Z,95.80
2022-12-09T19:19:56.432Z,95.80
2022-12-09T19:23:58.989Z,95.80
2022-12-09T19:28:01.012Z,95.70
2022-12-09T19:32:02.784Z,95.60
2022-12-09T19:36:04.761Z,96.00
2022-12-09T19:40:07.624Z,96.20
2022-12-09T19:44:15.311Z,96.10
2022-12-09T19:48:17.472Z,96.10
2022-12-09T19:52:19.229Z,96.10
2022-12-09T19:56:21.922Z,96.00
2022-12-09T20:00:23.628Z,95.90
2022-12-09T20:04:48.305Z,95.80
2022-12-09T20:08:48.598Z,95.70
2022-12-09T20:12:50.949Z,95.50
2022-12-09T20:16:52.625Z,95.80
2022-12-09T20:20:54.400Z,96.00
2022-12-09T20:24:56.251Z,95.80
2022-12-09T20:29:01.810Z,95.90
2022-12-09T20:33:03.553Z,96.00
2022-12-09T20:37:05.662Z,96.00
2022-12-09T20:41:12.871Z,96.00
2022-12-09T20:45:14.566Z,95.90
2022-12-09T20:49:16.437Z,95.90
2022-12-09T20:53:18.086Z,95.90
2022-12-09T20:57:19.811Z,95.80
2022-12-09T21:01:27.259Z,96.00
2022-12-09T21:05:29.041Z,95.90
2022-12-09T21:09:31.040Z,95.80
2022-12-09T21:13:36.609Z,95.70
2022-12-09T21:17:38.396Z,95.80
2022-12-09T21:21:42.595Z,95.80
2022-12-09T21:25:44.274Z,95.70
2022-12-09T21:29:45.938Z,95.70
2022-12-09T21:33:49.591Z,95.70
2022-12-09T21:37:55.994Z,96.00
2022-12-09T21:41:58.084Z,95.80
2022-12-09T21:46:19.890Z,96.00
2022-12-09T21:50:21.676Z,96.10
2022-12-09T21:54:23.352Z,95.80
2022-12-09T21:58:25.004Z,95.80
2022-12-09T22:02:26.692Z,95.80
2022-12-09T22:06:29.302Z,96.00
2022-12-09T22:10:31.100Z,95.70
2022-12-09T22:14:32.813Z,95.70
2022-12-09T22:18:35.201Z,95.50
2022-12-09T22:22:38.896Z,95.60
2022-12-09T22:26:43.514Z,95.50
2022-12-09T22:30:45.223Z,95.70
2022-12-09T22:34:46.930Z,95.80
2022-12-09T22:38:48.983Z,95.60
2022-12-09T22:42:50.682Z,95.70
2022-12-09T22:46:52.520Z,95.70
2022-12-09T22:50:54.163Z,95.40
2022-12-09T22:54:55.796Z,95.60
2022-12-09T22:58:58.793Z,95.70
2022-12-09T23:03:00.559Z,95.60
2022-12-09T23:07:02.615Z,95.30
2022-12-09T23:11:07.938Z,95.50
2022-12-09T23:15:09.979Z,95.50
2022-12-09T23:19:12.955Z,95.30
2022-12-09T23:23:15.020Z,95.40
2022-12-09T23:27:16.714Z,95.40
2022-12-09T23:31:20.743Z,95.50
2022-12-09T23:35:22.426Z,95.50
2022-12-09T23:39:24.106Z,95.60
2022-12-09T23:43:25.863Z,95.90
2022-12-09T23:47:27.495Z,95.80
2022-12-09T23:51:32.091Z,95.50
2022-12-09T23:55:33.734Z,95.80
2022-12-09T23:59:35.888Z,95.40
